createdAt,value
2018-08-24T00:00:04.031Z,9.93
2018-08-24T00:02:32.288Z,9.83
2018-08-24T00:05:00.551Z,9.37
2018-08-24T00:07:28.855Z,9.97
2018-08-24T00:09:57.072Z,9.57
2018-08-24T00:12:25.302Z,9.83
2018-08-24T00:14:53.535Z,8.87
2018-08-24T00:17:27.092Z,9.53
2018-08-24T00:19:55.361Z,8.93
2018-08-24T00:22:23.620Z,9.50
2018-08-24T00:24:51.863Z,8.97
2018-08-24T00:27:20.103Z,8.70
2018-08-24T00:29:48.369Z,9.83
2018-08-24T00:32:16.605Z,9.10
2018-08-24T00:34:44.856Z,9.17
2018-08-24T00:37:13.128Z,9.33
2018-08-24T00:39:42.965Z,9.90
2018-08-24T00:42:11.608Z,9.10
2018-08-24T00:44:40.336Z,9.63
2018-08-24T00:47:08.591Z,9.23
2018-08-24T00:49:36.935Z,8.80
2018-08-24T00:52:05.196Z,9.07
2018-08-24T00:54:33.488Z,9.97
2018-08-24T00:57:01.775Z,9.60
2018-08-24T00:59:30.048Z,9.60
2018-08-24T01:01:58.295Z,9.27
2018-08-24T01:04:31.859Z,9.80
2018-08-24T01:07:00.144Z,9.33
2018-08-24T01:09:28.387Z,10.10
2018-08-24T01:12:02.092Z,9.47
2018-08-24T01:14:30.397Z,10.13
2018-08-24T01:17:04.208Z,10.13
2018-08-24T01:19:32.451Z,9.43
2018-08-24T01:22:00.724Z,9.43
2018-08-24T01:24:30.571Z,10.00
2018-08-24T01:27:05.172Z,9.83
2018-08-24T01:29:36.681Z,9.77
2018-08-24T01:32:05.521Z,10.20
2018-08-24T01:34:34.675Z,9.87
2018-08-24T01:37:03.141Z,8.93
2018-08-24T01:39:31.680Z,9.30
2018-08-24T01:42:00.000Z,8.93
2018-08-24T01:44:28.770Z,8.63
2018-08-24T01:46:57.088Z,9.40
2018-08-24T01:49:27.417Z,9.50
2018-08-24T01:51:55.788Z,9.67
2018-08-24T01:54:24.171Z,10.03
2018-08-24T01:56:52.643Z,9.73
2018-08-24T01:59:20.938Z,9.60
2018-08-24T02:01:49.353Z,9.80
2018-08-24T02:04:17.612Z,10.43
2018-08-24T02:06:46.017Z,10.10
2018-08-24T02:09:14.350Z,10.27
2018-08-24T02:14:22.743Z,9.53
2018-08-24T02:16:50.998Z,9.83
2018-08-24T02:19:23.542Z,9.63
2018-08-24T02:21:57.199Z,9.70
2018-08-24T02:24:25.429Z,10.10
2018-08-24T02:26:53.670Z,9.43
2018-08-24T02:29:21.910Z,9.37
2018-08-24T02:31:50.858Z,10.17
2018-08-24T02:34:19.187Z,10.20
2018-08-24T02:36:47.458Z,9.70
2018-08-24T02:39:17.858Z,9.97
2018-08-24T02:41:46.169Z,9.87
2018-08-24T02:44:20.438Z,9.77
2018-08-24T02:46:48.764Z,10.57
2018-08-24T02:49:17.072Z,10.47
2018-08-24T02:51:45.307Z,10.53
2018-08-24T02:54:13.521Z,9.90
2018-08-24T02:56:41.780Z,10.07
2018-08-24T02:59:10.075Z,10.37
2018-08-24T03:01:38.337Z,10.37
2018-08-24T03:04:06.583Z,10.40
2018-08-24T03:06:34.889Z,11.07
2018-08-24T03:09:04.747Z,10.67
2018-08-24T03:11:33.097Z,10.97
2018-08-24T03:14:01.365Z,10.50
2018-08-24T03:16:29.757Z,11.00
2018-08-24T03:18:57.930Z,10.57
2018-08-24T03:21:26.207Z,10.97
2018-08-24T03:23:54.490Z,10.83
2018-08-24T03:26:22.733Z,10.90
2018-08-24T03:28:50.975Z,11.27
2018-08-24T03:31:19.221Z,11.43
2018-08-24T03:33:47.460Z,10.40
2018-08-24T03:36:15.756Z,11.37
2018-08-24T03:38:43.988Z,11.00
2018-08-24T03:41:12.245Z,11.30
2018-08-24T03:43:40.511Z,11.83
2018-08-24T03:46:08.740Z,11.50
2018-08-24T03:48:37.021Z,12.30
2018-08-24T03:51:05.235Z,11.30
2018-08-24T03:53:33.568Z,12.90
2018-08-24T03:56:01.833Z,11.80
2018-08-24T03:58:30.052Z,12.00
2018-08-24T04:00:58.831Z,12.17
2018-08-24T04:03:27.936Z,11.40
2018-08-24T04:05:56.206Z,11.90
2018-08-24T04:08:26.492Z,12.00
2018-08-24T04:10:54.728Z,11.67
2018-08-24T04:13:23.032Z,12.37
2018-08-24T04:15:51.283Z,11.40
2018-08-24T04:18:19.552Z,12.57
2018-08-24T04:20:47.794Z,12.00
2018-08-24T04:23:16.026Z,12.57
2018-08-24T04:25:44.343Z,12.73
2018-08-24T04:28:12.661Z,12.53
2018-08-24T04:30:40.931Z,12.87
2018-08-24T04:33:09.172Z,12.50
2018-08-24T04:35:37.441Z,12.37
2018-08-24T04:38:05.831Z,12.13
2018-08-24T04:40:34.091Z,12.43
2018-08-24T04:43:02.346Z,11.87
2018-08-24T04:45:30.643Z,11.83
2018-08-24T04:47:58.871Z,12.10
2018-08-24T04:50:27.160Z,10.83
2018-08-24T04:52:55.391Z,11.23
2018-08-24T04:55:23.645Z,11.73
2018-08-24T04:57:51.900Z,10.87
2018-08-24T05:00:20.132Z,10.90
2018-08-24T05:02:48.417Z,11.37
2018-08-24T05:05:16.662Z,11.13
2018-08-24T05:07:44.897Z,10.70
2018-08-24T05:10:13.174Z,11.70
2018-08-24T05:12:41.443Z,10.73
2018-08-24T05:15:09.720Z,11.07
2018-08-24T05:17:37.982Z,11.30
2018-08-24T05:20:06.225Z,10.87
2018-08-24T05:22:34.483Z,10.87
2018-08-24T05:25:02.744Z,11.20
2018-08-24T05:27:31.029Z,10.60
2018-08-24T05:29:59.255Z,10.50
2018-08-24T05:32:27.497Z,10.50
2018-08-24T05:34:55.752Z,10.57
2018-08-24T05:37:24.160Z,12.00
2018-08-24T05:39:52.439Z,11.13
2018-08-24T05:42:20.780Z,14.07
2018-08-24T05:44:49.025Z,13.13
2018-08-24T05:47:17.249Z,13.37
2018-08-24T05:49:45.491Z,12.67
2018-08-24T05:52:13.770Z,11.80
2018-08-24T05:54:42.063Z,10.73
2018-08-24T05:57:10.296Z,11.27
2018-08-24T05:59:38.515Z,10.83
2018-08-24T06:02:06.792Z,11.43
2018-08-24T06:04:35.068Z,10.17
2018-08-24T06:07:03.340Z,10.17
2018-08-24T06:09:31.555Z,10.10
2018-08-24T06:11:59.817Z,9.97
2018-08-24T06:14:28.065Z,10.00
2018-08-24T06:17:01.570Z,10.03
2018-08-24T06:19:29.811Z,10.03
2018-08-24T06:21:58.074Z,9.40
2018-08-24T06:24:26.335Z,9.43
2018-08-24T06:26:54.610Z,9.33
2018-08-24T06:29:22.887Z,9.40
2018-08-24T06:31:51.124Z,10.20
2018-08-24T06:34:19.380Z,9.90
2018-08-24T06:36:47.601Z,10.13
2018-08-24T06:39:15.879Z,9.77
2018-08-24T06:41:44.641Z,8.97
2018-08-24T06:44:12.949Z,8.93
2018-08-24T06:46:41.252Z,10.13
2018-08-24T06:49:09.524Z,10.17
2018-08-24T06:51:37.762Z,9.60
2018-08-24T06:54:06.009Z,8.63
2018-08-24T06:56:34.207Z,9.77
2018-08-24T06:59:02.447Z,9.07
2018-08-24T07:01:30.643Z,8.83
2018-08-24T07:03:58.830Z,8.93
2018-08-24T07:06:27.023Z,8.77
2018-08-24T07:08:55.287Z,8.27
2018-08-24T07:11:23.515Z,8.60
2018-08-24T07:13:51.711Z,8.20
2018-08-24T07:16:19.983Z,8.27
2018-08-24T07:18:48.207Z,7.77
2018-08-24T07:21:16.419Z,8.07
2018-08-24T07:23:45.013Z,7.87
2018-08-24T07:26:13.195Z,7.80
2018-08-24T07:28:41.382Z,7.50
2018-08-24T07:31:09.607Z,7.90
2018-08-24T07:33:37.811Z,7.40
2018-08-24T07:36:06.316Z,7.57
2018-08-24T07:38:34.504Z,7.43
2018-08-24T07:41:02.703Z,7.63
2018-08-24T07:43:30.919Z,7.27
2018-08-24T07:45:59.203Z,7.53
2018-08-24T07:48:27.517Z,7.63
2018-08-24T07:50:55.786Z,7.60
2018-08-24T07:53:23.945Z,7.40
2018-08-24T07:55:52.676Z,7.13
2018-08-24T07:58:20.906Z,6.90
2018-08-24T08:00:49.139Z,6.97
2018-08-24T08:03:17.332Z,7.13
2018-08-24T08:05:45.522Z,7.33
2018-08-24T08:08:13.769Z,6.93
2018-08-24T08:10:42.312Z,6.77
2018-08-24T08:13:11.734Z,7.17
2018-08-24T08:15:40.187Z,6.13
2018-08-24T08:18:08.534Z,6.63
2018-08-24T08:20:36.767Z,5.90
2018-08-24T08:23:05.018Z,6.17
2018-08-24T08:25:33.259Z,6.30
2018-08-24T08:28:01.503Z,6.30
2018-08-24T08:30:29.778Z,6.70
2018-08-24T08:32:58.027Z,8.07
2018-08-24T08:35:26.277Z,8.67
2018-08-24T08:37:54.600Z,10.90
2018-08-24T08:40:22.864Z,11.43
2018-08-24T08:42:51.130Z,12.10
2018-08-24T08:45:19.428Z,13.33
2018-08-24T08:47:47.675Z,12.87
2018-08-24T08:50:15.943Z,11.70
2018-08-24T08:52:44.182Z,11.93
2018-08-24T08:55:12.440Z,12.60
2018-08-24T08:57:40.699Z,12.30
2018-08-24T09:00:08.981Z,12.63
2018-08-24T09:02:37.272Z,10.60
2018-08-24T09:05:05.722Z,11.37
2018-08-24T09:07:33.977Z,10.30
2018-08-24T09:10:02.217Z,11.43
2018-08-24T09:12:30.475Z,12.07
2018-08-24T09:14:58.775Z,11.03
2018-08-24T09:17:32.456Z,11.97
2018-08-24T09:20:05.992Z,10.13
2018-08-24T09:22:39.595Z,9.93
2018-08-24T09:25:13.347Z,8.90
2018-08-24T09:27:45.827Z,9.47
2018-08-24T09:30:14.067Z,9.23
2018-08-24T09:32:42.419Z,8.90
2018-08-24T09:35:10.484Z,9.03
2018-08-24T09:37:39.616Z,7.83
2018-08-24T09:40:08.267Z,7.80
2018-08-24T09:42:36.494Z,7.97
2018-08-24T09:45:05.027Z,8.67
2018-08-24T09:47:38.657Z,8.43
2018-08-24T09:50:12.648Z,6.87
2018-08-24T09:52:40.904Z,6.67
2018-08-24T09:55:09.103Z,7.00
2018-08-24T09:57:37.455Z,6.50
2018-08-24T10:00:05.991Z,7.20
2018-08-24T10:02:39.629Z,7.07
2018-08-24T10:05:13.148Z,7.20
2018-08-24T10:07:44.135Z,6.87
2018-08-24T10:10:12.336Z,6.73
2018-08-24T10:12:40.532Z,6.50
2018-08-24T10:15:09.150Z,5.97
2018-08-24T10:17:37.562Z,6.47
2018-08-24T10:20:06.038Z,6.13
2018-08-24T10:22:34.224Z,6.13
2018-08-24T10:25:02.807Z,6.27
2018-08-24T10:27:31.056Z,6.23
2018-08-24T10:29:59.267Z,5.90
2018-08-24T10:32:28.057Z,6.30
2018-08-24T10:34:56.255Z,5.67
2018-08-24T10:37:24.562Z,6.23
2018-08-24T10:39:52.767Z,6.30
2018-08-24T10:42:21.011Z,6.30
2018-08-24T10:44:49.329Z,6.10
2018-08-24T10:47:17.799Z,6.40
2018-08-24T10:49:45.975Z,6.23
2018-08-24T10:52:14.246Z,6.47
2018-08-24T10:54:42.485Z,6.13
2018-08-24T10:57:10.695Z,5.80
2018-08-24T10:59:39.006Z,6.37
2018-08-24T11:02:07.323Z,6.13
2018-08-24T11:04:35.535Z,6.23
2018-08-24T11:07:03.847Z,5.50
2018-08-24T11:09:32.028Z,5.95
2018-08-24T11:12:00.298Z,5.65
2018-08-24T11:14:28.490Z,5.40
2018-08-24T11:16:56.711Z,6.12
2018-08-24T11:19:24.891Z,5.97
2018-08-24T11:21:53.396Z,5.85
2018-08-24T11:24:21.795Z,6.12
2018-08-24T11:26:50.060Z,5.67
2018-08-24T11:29:18.281Z,6.12
2018-08-24T11:31:46.456Z,6.33
2018-08-24T11:34:14.681Z,6.03
2018-08-24T11:36:42.900Z,6.58
2018-08-24T11:39:11.094Z,5.60
2018-08-24T11:41:39.354Z,6.08
2018-08-24T11:44:07.531Z,6.17
2018-08-24T11:46:35.722Z,5.70
2018-08-24T11:49:03.960Z,6.05
2018-08-24T11:51:32.172Z,6.13
2018-08-24T11:54:00.490Z,6.53
2018-08-24T11:56:28.690Z,6.10
2018-08-24T11:58:56.890Z,5.87
2018-08-24T12:01:26.098Z,5.77
2018-08-24T12:03:54.301Z,6.13
2018-08-24T12:06:22.488Z,6.50
2018-08-24T12:08:50.694Z,6.60
2018-08-24T12:11:18.884Z,6.10
2018-08-24T12:13:47.283Z,6.50
2018-08-24T12:16:15.463Z,6.00
2018-08-24T12:18:43.699Z,6.50
2018-08-24T12:21:11.976Z,6.70
2018-08-24T12:23:40.151Z,6.60
2018-08-24T12:26:08.371Z,6.97
2018-08-24T12:28:36.571Z,7.27
2018-08-24T12:31:05.011Z,9.10
2018-08-24T12:33:33.133Z,12.07
2018-08-24T12:36:01.324Z,15.30
2018-08-24T12:38:29.518Z,15.50
2018-08-24T12:40:57.754Z,15.73
2018-08-24T12:43:26.022Z,13.93
2018-08-24T12:45:54.215Z,14.03
2018-08-24T12:48:22.400Z,14.43
2018-08-24T12:50:50.592Z,11.80
2018-08-24T12:53:18.799Z,8.27
2018-08-24T12:55:47.035Z,8.83
2018-08-24T12:58:15.234Z,7.20
2018-08-24T13:00:43.559Z,6.77
2018-08-24T13:03:11.775Z,6.93
2018-08-24T13:05:39.979Z,7.00
2018-08-24T13:08:08.263Z,6.90
2018-08-24T13:10:36.455Z,6.07
2018-08-24T13:13:04.694Z,5.00
2018-08-24T13:15:32.895Z,4.60
2018-08-24T13:18:01.079Z,4.40
2018-08-24T13:20:29.312Z,5.00
2018-08-24T13:22:57.500Z,4.27
2018-08-24T13:25:25.695Z,4.00
2018-08-24T13:27:53.887Z,3.90
2018-08-24T13:30:22.074Z,4.17
2018-08-24T13:32:50.372Z,4.73
2018-08-24T13:35:18.559Z,3.90
2018-08-24T13:37:46.772Z,3.40
2018-08-24T13:40:14.955Z,3.30
2018-08-24T13:42:43.186Z,3.10
2018-08-24T13:45:11.503Z,3.30
2018-08-24T13:47:39.712Z,3.37
2018-08-24T13:50:07.923Z,3.00
2018-08-24T13:52:36.130Z,3.30
2018-08-24T13:55:04.338Z,3.30
2018-08-24T13:57:32.599Z,3.17
2018-08-24T14:00:00.794Z,3.70
2018-08-24T14:02:29.011Z,3.57
2018-08-24T14:04:57.259Z,3.33
2018-08-24T14:07:25.459Z,3.15
2018-08-24T14:09:53.692Z,3.42
2018-08-24T14:12:21.872Z,3.60
2018-08-24T14:14:50.082Z,3.20
2018-08-24T14:17:18.276Z,3.07
2018-08-24T14:19:46.535Z,3.50
2018-08-24T14:22:14.754Z,3.23
2018-08-24T14:24:42.939Z,3.63
2018-08-24T14:27:11.219Z,4.20
2018-08-24T14:29:39.428Z,4.03
2018-08-24T14:32:07.626Z,4.07
2018-08-24T14:34:35.899Z,4.03
2018-08-24T14:37:04.167Z,3.80
2018-08-24T14:39:32.360Z,3.87
2018-08-24T14:42:00.560Z,3.52
2018-08-24T14:44:28.800Z,3.87
2018-08-24T14:46:57.031Z,4.12
2018-08-24T14:49:25.295Z,3.98
2018-08-24T14:51:53.504Z,4.15
2018-08-24T14:54:21.691Z,3.70
2018-08-24T14:56:49.921Z,3.80
2018-08-24T14:59:18.179Z,4.05
2018-08-24T15:01:46.391Z,4.10
2018-08-24T15:04:14.697Z,4.00
2018-08-24T15:06:42.908Z,4.28
2018-08-24T15:09:11.899Z,3.60
2018-08-24T15:11:40.367Z,4.30
2018-08-24T15:14:08.943Z,4.33
2018-08-24T15:16:37.126Z,4.67
2018-08-24T15:19:05.455Z,5.27
2018-08-24T15:21:33.669Z,4.70
2018-08-24T15:24:01.863Z,5.20
2018-08-24T15:26:30.067Z,5.63
2018-08-24T15:28:58.319Z,5.83
2018-08-24T15:31:26.583Z,5.77
2018-08-24T15:33:54.811Z,6.80
2018-08-24T15:36:23.040Z,7.27
2018-08-24T15:38:51.271Z,6.77
2018-08-24T15:41:19.499Z,7.33
2018-08-24T15:43:47.678Z,7.60
2018-08-24T15:46:15.911Z,7.40
2018-08-24T15:48:44.135Z,12.37
2018-08-24T15:51:12.327Z,8.03
2018-08-24T15:53:40.522Z,9.00
2018-08-24T15:56:08.727Z,8.17
2018-08-24T15:58:36.948Z,8.30
2018-08-24T16:01:05.193Z,9.10
2018-08-24T16:03:33.415Z,10.10
2018-08-24T16:06:01.771Z,11.10
2018-08-24T16:08:30.022Z,10.37
2018-08-24T16:10:58.291Z,11.27
2018-08-24T16:13:26.497Z,17.87
2018-08-24T16:15:54.711Z,22.07
2018-08-24T16:18:24.536Z,25.13
2018-08-24T16:20:53.808Z,30.37
2018-08-24T16:23:22.222Z,33.97
2018-08-24T16:25:50.445Z,40.57
2018-08-24T16:28:19.365Z,41.60
2018-08-24T16:30:47.592Z,40.87
2018-08-24T16:33:15.839Z,45.17
2018-08-24T16:35:46.172Z,50.17
2018-08-24T16:38:14.842Z,52.70
2018-08-24T16:40:45.173Z,52.57
2018-08-24T16:43:13.981Z,48.10
2018-08-24T16:45:42.266Z,46.37
2018-08-24T16:48:10.572Z,52.37
2018-08-24T16:50:39.022Z,54.43
2018-08-24T16:53:07.384Z,55.30
2018-08-24T16:55:35.662Z,53.43
2018-08-24T16:58:03.985Z,53.93
2018-08-24T17:00:32.248Z,57.90
2018-08-24T17:03:00.439Z,56.40
2018-08-24T17:07:55.811Z,49.97
2018-08-24T17:10:24.019Z,54.77
2018-08-24T17:12:52.286Z,53.17
2018-08-24T17:15:20.525Z,51.37
2018-08-24T17:17:48.723Z,54.67
2018-08-24T17:20:16.940Z,74.57
2018-08-24T17:22:45.140Z,56.27
2018-08-24T17:25:13.488Z,62.00
2018-08-24T17:27:41.733Z,58.97
2018-08-24T17:30:09.952Z,64.93
2018-08-24T17:32:38.188Z,52.97
2018-08-24T17:35:06.648Z,56.30
2018-08-24T17:37:35.204Z,52.77
2018-08-24T17:40:03.436Z,48.77
2018-08-24T17:42:31.632Z,49.33
2018-08-24T17:45:00.465Z,47.43
2018-08-24T17:47:28.661Z,47.73
2018-08-24T17:49:57.426Z,55.93
2018-08-24T17:52:25.664Z,84.33
2018-08-24T17:54:54.166Z,75.33
2018-08-24T17:57:22.412Z,73.77
2018-08-24T17:59:50.786Z,80.13
2018-08-24T18:02:19.031Z,78.10
2018-08-24T18:04:47.272Z,77.03
2018-08-24T18:07:15.715Z,68.80
2018-08-24T18:09:43.904Z,67.00
2018-08-24T18:12:12.381Z,62.23
2018-08-24T18:14:40.693Z,59.47
2018-08-24T18:17:08.888Z,53.30
2018-08-24T18:19:37.104Z,51.07
2018-08-24T18:22:05.320Z,50.33
2018-08-24T18:24:33.564Z,45.47
2018-08-24T18:27:01.813Z,46.33
2018-08-24T18:29:30.126Z,43.50
2018-08-24T18:31:58.328Z,42.60
2018-08-24T18:34:26.588Z,39.30
2018-08-24T18:36:54.791Z,51.93
2018-08-24T18:39:23.115Z,48.33
2018-08-24T18:41:51.347Z,45.53
2018-08-24T18:44:19.560Z,45.17
2018-08-24T18:46:47.810Z,47.93
2018-08-24T18:49:16.016Z,46.17
2018-08-24T18:51:44.380Z,42.03
2018-08-24T18:54:12.588Z,43.50
2018-08-24T18:56:40.844Z,42.37
2018-08-24T18:59:09.806Z,42.47
2018-08-24T19:01:38.043Z,36.63
2018-08-24T19:04:06.310Z,38.90
2018-08-24T19:06:34.516Z,41.37
2018-08-24T19:09:02.824Z,37.97
2018-08-24T19:11:36.527Z,32.47
2018-08-24T19:14:04.737Z,34.47
2018-08-24T19:16:33.641Z,33.63
2018-08-24T19:19:07.979Z,31.40
2018-08-24T19:21:42.228Z,33.37
2018-08-24T19:24:10.689Z,34.60
2018-08-24T19:26:38.919Z,33.00
2018-08-24T19:29:12.412Z,34.27
2018-08-24T19:31:40.632Z,35.73
2018-08-24T19:34:09.403Z,35.50
2018-08-24T19:36:37.732Z,35.67
2018-08-24T19:39:07.796Z,35.10
2018-08-24T19:41:41.582Z,37.57
2018-08-24T19:44:09.806Z,35.97
2018-08-24T19:46:38.099Z,40.93
2018-08-24T19:49:11.860Z,42.73
2018-08-24T19:51:40.262Z,45.53
2018-08-24T19:54:08.472Z,38.87
2018-08-24T19:56:37.064Z,40.70
2018-08-24T19:59:07.139Z,40.57
2018-08-24T20:01:35.780Z,42.83
2018-08-24T20:04:05.013Z,45.47
2018-08-24T20:06:38.777Z,46.70
2018-08-24T20:09:13.654Z,53.03
2018-08-24T20:11:42.068Z,54.63
2018-08-24T20:14:10.324Z,50.03
2018-08-24T20:16:44.645Z,48.10
2018-08-24T20:19:12.900Z,51.07
2018-08-24T20:21:41.482Z,48.53
2018-08-24T20:24:09.740Z,51.10
2018-08-24T20:26:37.975Z,51.73
2018-08-24T20:29:06.177Z,54.57
2018-08-24T20:31:34.426Z,57.37
2018-08-24T20:34:02.672Z,63.10
2018-08-24T20:36:30.955Z,63.43
2018-08-24T20:38:59.178Z,69.53
2018-08-24T20:41:27.408Z,75.20
2018-08-24T20:43:55.687Z,73.77
2018-08-24T20:46:23.959Z,66.93
2018-08-24T20:48:52.184Z,66.77
2018-08-24T20:51:20.426Z,72.97
2018-08-24T20:53:48.628Z,71.43
2018-08-24T20:56:17.230Z,80.85
2018-08-24T20:58:45.483Z,84.60
2018-08-24T21:01:13.736Z,86.33
2018-08-24T21:03:41.971Z,74.10
2018-08-24T21:06:10.315Z,71.47
2018-08-24T21:08:38.673Z,65.87
2018-08-24T21:11:06.883Z,63.53
2018-08-24T21:13:35.163Z,65.80
2018-08-24T21:16:03.366Z,66.50
2018-08-24T21:18:31.558Z,63.90
2018-08-24T21:20:59.783Z,68.23
2018-08-24T21:23:28.359Z,68.77
2018-08-24T21:25:56.596Z,66.20
2018-08-24T21:28:24.942Z,71.87
2018-08-24T21:30:53.249Z,70.17
2018-08-24T21:33:21.459Z,69.17
2018-08-24T21:35:49.672Z,74.23
2018-08-24T21:38:17.909Z,77.40
2018-08-24T21:40:46.104Z,78.60
2018-08-24T21:43:14.314Z,81.90
2018-08-24T21:45:42.551Z,87.83
2018-08-24T21:48:10.778Z,87.30
2018-08-24T21:50:41.060Z,81.97
2018-08-24T21:53:09.342Z,84.80
2018-08-24T21:55:38.657Z,82.13
2018-08-24T21:58:07.786Z,85.30
2018-08-24T22:00:40.663Z,76.63
2018-08-24T22:03:09.601Z,77.47
2018-08-24T22:05:38.098Z,70.00
2018-08-24T22:08:06.798Z,58.50
2018-08-24T22:10:35.524Z,46.27
2018-08-24T22:13:03.847Z,36.87
2018-08-24T22:15:32.730Z,31.53
2018-08-24T22:18:01.438Z,25.70
2018-08-24T22:20:29.808Z,28.97
2018-08-24T22:22:58.125Z,28.23
2018-08-24T22:25:26.470Z,30.80
2018-08-24T22:27:54.804Z,32.33
2018-08-24T22:30:23.107Z,32.67
2018-08-24T22:32:51.389Z,26.60
2018-08-24T22:35:19.699Z,25.20
2018-08-24T22:37:48.020Z,25.07
2018-08-24T22:40:16.342Z,29.03
2018-08-24T22:42:44.653Z,28.97
2018-08-24T22:45:13.986Z,32.40
2018-08-24T22:47:42.288Z,32.93
2018-08-24T22:50:10.621Z,31.50
2018-08-24T22:52:39.615Z,32.43
2018-08-24T22:55:08.319Z,29.33
2018-08-24T22:57:36.637Z,28.60
2018-08-24T23:00:04.988Z,27.67
2018-08-24T23:02:33.286Z,27.13
2018-08-24T23:05:01.620Z,28.63
2018-08-24T23:07:29.923Z,29.43
2018-08-24T23:09:58.360Z,31.40
2018-08-24T23:12:26.665Z,29.00
2018-08-24T23:14:55.031Z,29.60
2018-08-24T23:17:23.397Z,30.47
2018-08-24T23:19:51.686Z,28.43
2018-08-24T23:22:19.999Z,30.77
2018-08-24T23:24:48.303Z,28.60
2018-08-24T23:27:16.699Z,27.57
2018-08-24T23:29:45.055Z,27.90
2018-08-24T23:32:13.373Z,26.97
2018-08-24T23:34:41.688Z,25.47
2018-08-24T23:37:10.006Z,22.87
2018-08-24T23:39:38.322Z,17.70
2018-08-24T23:42:06.675Z,13.97
2018-08-24T23:44:34.995Z,14.17
2018-08-24T23:47:03.388Z,13.60
2018-08-24T23:49:31.706Z,12.27
2018-08-24T23:52:00.059Z,13.40
2018-08-24T23:54:28.436Z,14.60
2018-08-24T23:56:56.824Z,12.87
2018-08-24T23:59:25.121Z,12.90
